Time;durP1;ratioP1;P1;durP2;ratioP2;P2;SDS_P1;SDS_P2;PMS_P1;PMS_P2;Temp;Humidity;BMP_temperature;BMP_pressure;BME280_temperature;BME280_humidity;BME280_pressure;Samples;Min_cycle;Max_cycle;Signal;HPM_P1;HPM_P2
2022/05/10 00:01:52;;;;;;;9.13;2.63;;;20.80;58.80;;;;;;5035544;28;20017;-75
2022/05/10 00:04:18;;;;;;;5.68;3.08;;;20.80;58.90;;;;;;5035671;28;20040;-75
2022/05/10 00:06:49;;;;;;;6.47;3.20;;;20.70;59.10;;;;;;5035030;28;20067;-75
2022/05/10 00:09:22;;;;;;;9.85;2.95;;;20.70;59.20;;;;;;5035633;28;20026;-75
2022/05/10 00:11:47;;;;;;;8.75;3.60;;;20.70;59.20;;;;;;5035488;28;20045;-75
2022/05/10 00:14:13;;;;;;;8.35;3.70;;;20.80;59.30;;;;;;5035139;28;20037;-75
2022/05/10 00:16:42;;;;;;;7.03;3.53;;;20.80;59.20;;;;;;5034917;28;20033;-75
2022/05/10 00:19:15;;;;;;;8.52;3.88;;;20.80;59.10;;;;;;5035831;28;20380;-75
2022/05/10 00:21:41;;;;;;;8.38;3.35;;;20.80;59.20;;;;;;5035135;28;20385;-75
2022/05/10 00:24:07;;;;;;;7.85;3.45;;;20.80;59.20;;;;;;5034998;28;20486;-75
2022/05/10 00:26:33;;;;;;;11.55;4.15;;;20.80;59.20;;;;;;5035296;28;20416;-75
2022/05/10 00:29:00;;;;;;;11.05;5.05;;;20.80;59.20;;;;;;5035213;28;20036;-75
2022/05/10 00:31:26;;;;;;;6.82;4.22;;;20.80;59.30;;;;;;5034855;28;20030;-75
2022/05/10 00:33:52;;;;;;;8.63;4.60;;;20.80;59.20;;;;;;5034826;28;20488;-75
2022/05/10 00:36:21;;;;;;;5.93;4.15;;;20.80;59.30;;;;;;5034516;28;20064;-75
2022/05/10 00:38:46;;;;;;;9.38;4.32;;;20.80;59.30;;;;;;5034945;28;20048;-75
2022/05/10 00:41:28;;;;;;;6.15;4.10;;;20.80;59.30;;;;;;5034845;28;20060;-75
2022/05/10 00:44:09;;;;;;;7.70;4.20;;;20.80;59.30;;;;;;5034416;28;20079;-75
2022/05/10 00:46:44;;;;;;;6.82;4.07;;;20.80;59.40;;;;;;5034125;28;20049;-75
2022/05/10 00:49:34;;;;;;;7.03;3.83;;;20.80;59.50;;;;;;5034806;28;20025;-75
2022/05/10 00:52:11;;;;;;;7.45;4.03;;;20.80;59.70;;;;;;5034748;28;20032;-75
2022/05/10 00:54:45;;;;;;;8.65;4.43;;;20.80;59.70;;;;;;5034333;28;20120;-75
2022/05/10 00:57:29;;;;;;;10.13;4.00;;;20.70;59.70;;;;;;5034368;28;20076;-75
2022/05/10 00:59:58;;;;;;;7.18;4.32;;;20.70;60.00;;;;;;5034662;28;20060;-75
2022/05/10 01:02:46;;;;;;;6.90;3.65;;;20.70;59.90;;;;;;5034307;28;20029;-75
2022/05/10 01:05:23;;;;;;;7.15;4.75;;;20.70;60.20;;;;;;5014108;28;20030;-75
2022/05/10 01:08:08;;;;;;;10.63;5.72;;;20.70;60.30;;;;;;5034217;28;20025;-75
2022/05/10 01:10:45;;;;;;;8.75;5.60;;;20.70;60.50;;;;;;5033830;28;20117;-75
2022/05/10 01:13:28;;;;;;;13.98;5.72;;;20.70;60.40;;;;;;5033885;28;20159;-75
2022/05/10 01:16:08;;;;;;;8.63;4.78;;;20.60;60.60;;;;;;5034081;28;20156;-75
2022/05/10 01:18:35;;;;;;;10.20;5.10;;;20.70;60.70;;;;;;5034133;28;20029;-75
2022/05/10 01:21:11;;;;;;;12.63;6.00;;;20.60;60.60;;;;;;5034220;28;20029;-75
2022/05/10 01:23:42;;;;;;;10.23;5.40;;;20.60;60.70;;;;;;5033755;28;20025;-75
2022/05/10 01:26:47;;;;;;;8.75;5.07;;;20.60;60.90;;;;;;5033836;28;20032;-75
2022/05/10 01:29:21;;;;;;;10.70;4.68;;;20.60;61.00;;;;;;5033782;28;20112;-75
2022/05/10 01:33:29;;;;;;;9.90;5.82;;;20.60;61.10;;;;;;5033718;28;20022;-75
2022/05/10 01:34:38;;;;;;;7.78;4.72;;;20.60;61.40;;;;;;5033703;28;20489;-75
2022/05/10 01:37:10;;;;;;;10.18;5.43;;;20.50;61.50;;;;;;5033650;28;20036;-75
2022/05/10 01:39:56;;;;;;;;;;;20.50;61.60;;;;;;5034270;28;20159;-75
2022/05/10 01:42:48;;;;;;;6.57;5.05;;;20.50;61.50;;;;;;5022515;28;19913;-75
2022/05/10 01:45:35;;;;;;;9.88;5.25;;;20.40;61.50;;;;;;5027247;28;20132;-75
2022/05/10 01:48:03;;;;;;;7.60;4.95;;;20.40;61.60;;;;;;5033558;28;20547;-75
2022/05/10 01:50:54;;;;;;;10.07;5.53;;;20.40;61.60;;;;;;5033158;28;20476;-76
2022/05/10 01:53:24;;;;;;;13.55;6.22;;;20.40;61.80;;;;;;5033348;28;20029;-75
2022/05/10 01:55:52;;;;;;;9.10;5.80;;;20.40;61.90;;;;;;5033679;28;20099;-75
2022/05/10 01:58:27;;;;;;;11.82;6.32;;;20.40;62.10;;;;;;5032754;28;20028;-75
2022/05/10 02:00:59;;;;;;;9.35;5.43;;;20.40;62.20;;;;;;5032966;28;20030;-75
2022/05/10 02:03:39;;;;;;;10.60;5.60;;;20.40;62.20;;;;;;5033356;28;20025;-75
2022/05/10 02:06:30;;;;;;;8.57;5.78;;;20.30;62.30;;;;;;5033271;28;20265;-75
2022/05/10 02:09:11;;;;;;;12.98;6.15;;;20.30;62.40;;;;;;5033256;28;20037;-75
2022/05/10 02:11:41;;;;;;;12.25;6.07;;;20.30;62.40;;;;;;5033608;28;20021;-75
2022/05/10 02:14:31;;;;;;;11.25;6.03;;;20.30;62.60;;;;;;5032791;28;20052;-75
2022/05/10 02:17:19;;;;;;;8.10;6.03;;;20.20;62.60;;;;;;5033511;28;20029;-75
2022/05/10 02:19:56;;;;;;;9.82;5.97;;;20.20;62.60;;;;;;5033150;28;20080;-75
2022/05/10 02:22:25;;;;;;;10.13;6.00;;;20.20;62.60;;;;;;5033212;28;20017;-75
2022/05/10 02:24:57;;;;;;;8.75;6.30;;;20.20;62.70;;;;;;5033381;28;20025;-75
2022/05/10 02:27:29;;;;;;;12.97;6.37;;;20.20;62.80;;;;;;5033462;28;20032;-75
2022/05/10 02:30:07;;;;;;;11.10;6.15;;;20.20;62.90;;;;;;5032987;28;20028;-75
2022/05/10 02:35:21;;;;;;;10.15;7.18;;;20.10;63.10;;;;;;5033027;28;20117;-75
2022/05/10 02:37:47;;;;;;;11.68;6.97;;;20.10;63.20;;;;;;5033066;28;20041;-75
2022/05/10 02:40:14;;;;;;;13.10;7.45;;;20.10;63.40;;;;;;5033045;28;20057;-75
2022/05/10 02:42:43;;;;;;;11.50;7.03;;;20.00;63.50;;;;;;5032965;28;20470;-75
2022/05/10 02:45:09;;;;;;;10.23;7.05;;;20.00;63.60;;;;;;5033044;28;20021;-75
2022/05/10 02:47:41;;;;;;;10.15;6.53;;;20.00;63.70;;;;;;5032786;28;20111;-75
2022/05/10 02:50:13;;;;;;;13.07;7.60;;;20.00;64.00;;;;;;5033219;28;20067;-75
2022/05/10 02:52:39;;;;;;;9.35;7.15;;;20.00;64.00;;;;;;5033074;28;20064;-75
2022/05/10 02:55:34;;;;;;;8.95;6.95;;;20.00;64.10;;;;;;5032539;28;20456;-75
2022/05/10 02:58:06;;;;;;;13.10;7.45;;;19.90;64.30;;;;;;5032835;28;20028;-75
2022/05/10 03:00:32;;;;;;;8.73;6.95;;;20.00;64.30;;;;;;5033091;28;20034;-75
2022/05/10 03:03:15;;;;;;;11.43;7.60;;;19.90;64.30;;;;;;5032764;28;20465;-75
2022/05/10 03:05:41;;;;;;;12.95;8.82;;;20.00;64.30;;;;;;5033025;28;20045;-76
2022/05/10 03:08:07;;;;;;;14.02;8.40;;;20.00;64.40;;;;;;5032437;28;20385;-76
2022/05/10 03:10:32;;;;;;;14.30;7.47;;;20.00;64.40;;;;;;5035078;28;20117;-76
2022/05/10 03:12:59;;;;;;;12.23;8.38;;;20.00;64.50;;;;;;5036480;28;20017;-76
2022/05/10 03:15:25;;;;;;;10.18;6.82;;;20.00;64.60;;;;;;5036157;28;20037;-76
2022/05/10 03:17:51;;;;;;;9.27;7.40;;;20.00;64.80;;;;;;5036250;28;20034;-76
2022/05/10 03:20:16;;;;;;;9.13;7.15;;;20.00;64.80;;;;;;5036280;28;20025;-75
2022/05/10 03:22:42;;;;;;;10.15;7.63;;;20.00;64.80;;;;;;5036200;28;20426;-76
2022/05/10 03:25:07;;;;;;;12.88;9.20;;;20.00;64.80;;;;;;5036171;28;20014;-76
2022/05/10 03:27:34;;;;;;;19.25;12.52;;;19.90;65.00;;;;;;5036433;28;20164;-76
2022/05/10 03:30:02;;;;;;;12.55;9.38;;;19.90;65.00;;;;;;5036159;28;20022;-76
2022/05/10 03:32:29;;;;;;;12.23;9.02;;;19.80;65.00;;;;;;5035914;28;20032;-75
2022/05/10 03:34:54;;;;;;;16.60;8.75;;;19.80;65.10;;;;;;5035912;28;20037;-76
2022/05/10 03:37:21;;;;;;;15.98;8.68;;;19.80;65.20;;;;;;5035875;28;20021;-76
2022/05/10 03:39:47;;;;;;;11.20;7.93;;;19.80;65.30;;;;;;5036321;28;20025;-74
2022/05/10 03:42:12;;;;;;;13.45;8.40;;;19.80;65.20;;;;;;5035980;28;20109;-74
2022/05/10 03:44:38;;;;;;;14.45;9.43;;;19.80;65.90;;;;;;5035572;28;20469;-74
2022/05/10 03:47:05;;;;;;;10.00;7.45;;;19.80;65.30;;;;;;5035455;28;20052;-75
2022/05/10 03:49:31;;;;;;;10.93;8.25;;;19.80;65.50;;;;;;5036030;28;20035;-75
2022/05/10 03:51:57;;;;;;;14.20;9.18;;;19.80;65.60;;;;;;5035800;28;20384;-75
2022/05/10 03:54:23;;;;;;;13.27;9.30;;;19.80;65.60;;;;;;5035901;28;20033;-74
2022/05/10 03:56:50;;;;;;;10.43;8.27;;;19.80;65.60;;;;;;5035514;28;20432;-75
2022/05/10 03:59:17;;;;;;;9.95;7.80;;;19.80;65.70;;;;;;5035554;28;20100;-76
2022/05/10 04:01:43;;;;;;;12.77;9.77;;;19.80;65.90;;;;;;5035515;28;20027;-75
2022/05/10 04:04:08;;;;;;;16.80;10.57;;;19.80;65.60;;;;;;5035715;28;20029;-74
2022/05/10 04:06:34;;;;;;;10.68;8.68;;;19.80;65.70;;;;;;5035305;28;20124;-75
2022/05/10 04:09:00;;;;;;;12.13;9.10;;;19.80;65.80;;;;;;5035331;28;20022;-75
2022/05/10 04:11:25;;;;;;;13.60;9.10;;;19.80;65.80;;;;;;5035620;28;20152;-75
2022/05/10 04:13:51;;;;;;;13.63;10.75;;;19.80;65.70;;;;;;5035206;28;20037;-75
2022/05/10 04:16:16;;;;;;;10.88;9.30;;;19.80;66.40;;;;;;5035130;28;20018;-75
2022/05/10 04:18:42;;;;;;;12.52;8.60;;;19.70;66.40;;;;;;5035519;28;20025;-75
2022/05/10 04:21:08;;;;;;;14.32;10.88;;;19.70;66.50;;;;;;5034382;28;20017;-75
2022/05/10 04:23:35;;;;;;;15.43;11.40;;;19.70;66.50;;;;;;5035155;28;20022;-75
2022/05/10 04:26:05;;;;;;;15.32;10.88;;;19.70;66.60;;;;;;5035062;28;20478;-75
2022/05/10 04:28:32;;;;;;;17.08;10.65;;;19.70;66.90;;;;;;5035012;28;20473;-75
2022/05/10 04:30:58;;;;;;;14.30;9.35;;;19.60;67.00;;;;;;5034796;28;20493;-75
2022/05/10 04:33:23;;;;;;;13.23;8.90;;;19.70;67.10;;;;;;5034794;28;20079;-75
2022/05/10 04:35:49;;;;;;;12.77;9.48;;;19.60;67.00;;;;;;5035157;28;20033;-75
2022/05/10 04:38:15;;;;;;;13.35;10.02;;;19.70;67.10;;;;;;5034865;28;20026;-75
2022/05/10 04:43:24;;;;;;;15.38;10.27;;;19.70;67.10;;;;;;5034672;28;20113;-75
2022/05/10 04:45:50;;;;;;;14.52;10.15;;;19.70;67.10;;;;;;5034714;28;20120;-74
2022/05/10 04:48:16;;;;;;;19.23;13.57;;;19.60;67.00;;;;;;5034720;28;20040;-75
2022/05/10 04:50:41;;;;;;;16.73;11.07;;;19.60;67.00;;;;;;5034413;28;20056;-75
2022/05/10 04:53:08;;;;;;;15.95;11.32;;;19.50;67.10;;;;;;5034258;28;20060;-74
2022/05/10 04:55:34;;;;;;;16.05;11.52;;;19.50;67.30;;;;;;5034356;28;20061;-74
2022/05/10 04:57:59;;;;;;;13.48;10.18;;;19.50;67.30;;;;;;5034253;28;20028;-75
2022/05/10 05:00:26;;;;;;;14.02;10.57;;;19.60;67.30;;;;;;5034476;28;20022;-74
2022/05/10 05:02:52;;;;;;;13.77;9.43;;;19.60;67.30;;;;;;5034607;28;20049;-75
2022/05/10 05:05:17;;;;;;;15.82;11.60;;;19.70;67.30;;;;;;5034335;28;20060;-74
2022/05/10 05:07:43;;;;;;;11.43;9.25;;;19.70;67.20;;;;;;5033996;28;20021;-76
2022/05/10 05:10:09;;;;;;;17.80;11.30;;;19.70;67.20;;;;;;5034424;28;20376;-75
2022/05/10 05:12:36;;;;;;;16.42;11.18;;;19.70;67.20;;;;;;5034053;28;20056;-76
2022/05/10 05:15:04;;;;;;;14.82;11.13;;;19.80;67.30;;;;;;5034154;28;20037;-76
2022/05/10 05:17:29;;;;;;;12.38;9.90;;;19.80;67.30;;;;;;5033963;28;20014;-76
2022/05/10 05:19:55;;;;;;;15.82;10.88;;;19.80;67.30;;;;;;5033936;28;20026;-75
2022/05/10 05:22:21;;;;;;;15.45;10.88;;;19.80;67.50;;;;;;5034041;28;20059;-76
2022/05/10 05:24:46;;;;;;;17.33;11.30;;;19.80;67.60;;;;;;5034173;28;20381;-76
2022/05/10 05:27:12;;;;;;;19.45;12.75;;;19.80;67.40;;;;;;5033931;28;20025;-76
2022/05/10 05:29:38;;;;;;;21.15;13.43;;;19.80;67.40;;;;;;5033593;28;20033;-76
2022/05/10 05:32:08;;;;;;;18.00;10.40;;;19.90;67.70;;;;;;5033751;28;20533;-76
2022/05/10 05:34:35;;;;;;;19.75;13.15;;;19.80;67.70;;;;;;5033223;28;20207;-76
2022/05/10 05:39:45;;;;;;;18.25;12.10;;;19.70;67.30;;;;;;5033422;28;20041;-75
2022/05/10 05:42:10;;;;;;;15.82;11.93;;;19.70;67.40;;;;;;5033488;28;20025;-76
2022/05/10 05:44:36;;;;;;;17.95;11.75;;;19.70;67.50;;;;;;5033247;28;20469;-76
2022/05/10 05:47:01;;;;;;;15.95;11.00;;;19.70;67.60;;;;;;5032686;28;20455;-76
2022/05/10 05:49:27;;;;;;;20.48;12.40;;;19.70;67.50;;;;;;5033287;28;20028;-74
2022/05/10 05:52:01;;;;;;;17.63;11.15;;;19.60;67.00;;;;;;5032889;28;20017;-74
2022/05/10 05:54:27;;;;;;;14.70;10.73;;;19.50;66.80;;;;;;5033154;28;20033;-75
2022/05/10 05:57:07;;;;;;;17.38;11.15;;;19.50;67.00;;;;;;5032986;28;20025;-76
2022/05/10 05:59:34;;;;;;;18.45;12.65;;;19.60;67.10;;;;;;5032554;28;20104;-75
2022/05/10 06:02:00;;;;;;;15.30;11.50;;;19.60;67.40;;;;;;5033346;28;20022;-75
2022/05/10 06:04:25;;;;;;;19.17;10.27;;;19.60;67.80;;;;;;5033252;28;20477;-75
2022/05/10 06:06:51;;;;;;;15.02;11.02;;;19.50;67.90;;;;;;5033298;28;20530;-75
2022/05/10 06:09:22;;;;;;;19.80;13.82;;;19.60;68.50;;;;;;5033343;28;20025;-75
2022/05/10 06:11:51;;;;;;;16.58;11.52;;;19.60;68.40;;;;;;5033334;28;20017;-75
2022/05/10 06:14:17;;;;;;;15.85;11.23;;;19.50;68.60;;;;;;5033001;28;20177;-76
2022/05/10 06:16:43;;;;;;;21.55;13.10;;;19.60;68.50;;;;;;5033077;28;20060;-76
2022/05/10 06:19:10;;;;;;;20.85;13.80;;;19.50;68.80;;;;;;5032794;28;20100;-76
2022/05/10 06:21:36;;;;;;;18.67;13.32;;;19.60;69.10;;;;;;5032862;28;20022;-76
2022/05/10 06:24:02;;;;;;;21.90;14.88;;;19.40;68.70;;;;;;5033052;28;20032;-75
2022/05/10 06:26:27;;;;;;;18.10;13.75;;;19.40;69.90;;;;;;5032853;28;20164;-76
2022/05/10 06:28:53;;;;;;;20.77;12.55;;;19.30;70.20;;;;;;5033027;28;20088;-75
2022/05/10 06:31:18;;;;;;;19.77;13.73;;;19.30;70.20;;;;;;5033033;28;20022;-76
2022/05/10 06:33:44;;;;;;;18.40;11.85;;;19.30;70.30;;;;;;5032725;28;20026;-75
2022/05/10 06:36:09;;;;;;;21.17;14.52;;;19.40;70.20;;;;;;5032865;28;20373;-76
2022/05/10 06:38:36;;;;;;;23.00;13.95;;;19.50;70.30;;;;;;5032965;28;20052;-76
2022/05/10 06:41:04;;;;;;;20.77;13.70;;;19.50;70.20;;;;;;5032813;28;20034;-76
2022/05/10 06:43:35;;;;;;;25.25;12.95;;;19.60;70.10;;;;;;5032959;28;20042;-76
2022/05/10 06:46:07;;;;;;;22.75;13.45;;;19.70;70.00;;;;;;5035818;28;20048;-75
2022/05/10 06:48:33;;;;;;;18.27;13.40;;;19.80;70.40;;;;;;5036845;28;20076;-76
2022/05/10 06:50:59;;;;;;;29.02;14.20;;;19.80;70.60;;;;;;5036886;28;20033;-75
2022/05/10 06:53:25;;;;;;;18.42;13.02;;;19.80;71.00;;;;;;5036473;28;20025;-75
2022/05/10 06:55:51;;;;;;;19.85;13.40;;;19.90;71.10;;;;;;5036502;28;20538;-75
2022/05/10 06:58:17;;;;;;;17.13;12.27;;;20.00;71.00;;;;;;5036658;28;20026;-75
2022/05/10 07:00:42;;;;;;;19.75;15.05;;;20.00;70.90;;;;;;5036669;28;20029;-75
2022/05/10 07:03:11;;;;;;;20.92;13.95;;;20.10;70.70;;;;;;5036678;28;20083;-74
2022/05/10 07:05:39;;;;;;;20.30;12.85;;;20.10;70.30;;;;;;5036417;28;20056;-74
2022/05/10 07:08:05;;;;;;;19.52;14.90;;;20.10;70.60;;;;;;5036111;28;20041;-75
2022/05/10 07:10:31;;;;;;;21.75;13.30;;;20.20;70.80;;;;;;5036400;28;20025;-75
2022/05/10 07:12:58;;;;;;;18.98;13.23;;;20.20;70.90;;;;;;5036374;28;20053;-75
2022/05/10 07:15:24;;;;;;;18.58;13.50;;;20.30;71.30;;;;;;5036132;28;20065;-75
2022/05/10 07:17:50;;;;;;;20.95;13.88;;;20.30;71.40;;;;;;5036503;28;20044;-75
2022/05/10 07:20:17;;;;;;;19.70;14.15;;;20.40;71.20;;;;;;5036407;28;20055;-75
2022/05/10 07:22:43;;;;;;;21.17;13.55;;;20.40;71.00;;;;;;5036194;28;20032;-75
2022/05/10 07:25:12;;;;;;;21.35;14.82;;;20.50;71.00;;;;;;5035881;28;20026;-75
2022/05/10 07:27:39;;;;;;;23.27;14.45;;;20.50;71.70;;;;;;5035832;28;20596;-75
2022/05/10 07:30:05;;;;;;;17.90;12.52;;;20.60;71.70;;;;;;5035493;28;20033;-75
2022/05/10 07:32:30;;;;;;;19.52;13.65;;;20.70;71.60;;;;;;5035676;28;20111;-75
2022/05/10 07:34:56;;;;;;;21.42;14.50;;;20.70;71.60;;;;;;5035931;28;20085;-76
2022/05/10 07:37:22;;;;;;;20.90;14.25;;;20.80;71.30;;;;;;5035956;28;20029;-76
2022/05/10 07:39:47;;;;;;;20.70;14.90;;;20.80;71.20;;;;;;5035591;28;20025;-76
2022/05/10 07:42:13;;;;;;;22.35;13.40;;;21.00;73.30;;;;;;5035647;28;20397;-76
2022/05/10 07:44:39;;;;;;;20.23;13.50;;;21.10;72.50;;;;;;5035531;28;20021;-76
2022/05/10 07:47:04;;;;;;;17.15;13.13;;;21.30;71.50;;;;;;5035546;28;20488;-76
2022/05/10 07:49:30;;;;;;;18.65;12.82;;;21.40;70.30;;;;;;5035474;28;20109;-76
2022/05/10 07:51:56;;;;;;;14.70;12.13;;;21.50;70.80;;;;;;5035744;28;20033;-76
2022/05/10 07:54:21;;;;;;;16.30;11.40;;;21.60;70.60;;;;;;5035800;28;20037;-76
2022/05/10 07:56:47;;;;;;;13.98;10.65;;;21.70;70.30;;;;;;5034473;28;20101;-76
2022/05/10 07:59:12;;;;;;;15.30;10.70;;;21.80;69.90;;;;;;5035493;28;20480;-76
2022/05/10 08:01:38;;;;;;;15.23;10.70;;;21.90;70.20;;;;;;5035451;28;20025;-76
2022/05/10 08:04:04;;;;;;;13.13;10.60;;;22.00;68.10;;;;;;5035668;28;20113;-76
2022/05/10 08:06:30;;;;;;;10.98;9.50;;;22.10;68.30;;;;;;5035350;28;20026;-76
2022/05/10 08:08:55;;;;;;;14.02;10.60;;;22.20;68.40;;;;;;5035660;28;20527;-76
2022/05/10 08:11:22;;;;;;;15.23;10.30;;;22.20;68.00;;;;;;5035061;28;20025;-76
2022/05/10 08:13:48;;;;;;;13.02;10.35;;;22.30;67.90;;;;;;5035153;28;20033;-76
2022/05/10 08:16:14;;;;;;;15.55;10.75;;;22.20;67.60;;;;;;5035202;28;20033;-74
2022/05/10 08:18:41;;;;;;;13.35;9.27;;;22.10;67.30;;;;;;5035221;28;20034;-75
2022/05/10 08:21:08;;;;;;;11.32;8.68;;;22.10;67.70;;;;;;5035238;28;20029;-75
2022/05/10 08:23:36;;;;;;;12.57;9.15;;;22.00;68.50;;;;;;5035083;28;20021;-74
2022/05/10 08:26:02;;;;;;;14.15;8.50;;;22.00;69.00;;;;;;5035358;28;20033;-76
2022/05/10 08:28:30;;;;;;;13.15;8.23;;;22.00;68.90;;;;;;5035227;28;20454;-75
2022/05/10 08:30:55;;;;;;;13.15;8.63;;;22.10;69.80;;;;;;5034830;28;20108;-75
2022/05/10 08:33:27;;;;;;;10.07;7.43;;;22.10;69.10;;;;;;5034945;28;20162;-75
2022/05/10 08:35:55;;;;;;;8.65;7.80;;;22.10;68.30;;;;;;5035084;28;20033;-75
2022/05/10 08:38:21;;;;;;;16.48;8.18;;;22.10;68.60;;;;;;5034749;28;20545;-75
2022/05/10 08:41:26;;;;;;;14.07;7.93;;;22.10;68.60;;;;;;5034779;28;20076;-76
2022/05/10 08:43:59;;;;;;;11.70;7.00;;;22.10;68.00;;;;;;5034519;28;20036;-76
2022/05/10 08:46:31;;;;;;;9.57;7.68;;;22.10;68.70;;;;;;5034208;28;20056;-75
2022/05/10 08:49:23;;;;;;;16.48;7.13;;;22.10;69.30;;;;;;5034618;28;20029;-75
2022/05/10 08:51:52;;;;;;;13.45;7.10;;;22.10;69.90;;;;;;5026232;28;20029;-75
2022/05/10 08:54:17;;;;;;;11.10;6.18;;;22.10;69.30;;;;;;5034556;28;20052;-75
2022/05/10 08:57:03;;;;;;;8.25;5.63;;;22.10;68.80;;;;;;5034535;28;20469;-75
2022/05/10 09:00:05;;;;;;;8.65;5.80;;;22.10;68.70;;;;;;5034652;28;20028;-75
2022/05/10 09:02:35;;;;;;;6.68;5.20;;;22.00;67.80;;;;;;5034226;28;20079;-75
2022/05/10 09:05:29;;;;;;;8.82;5.13;;;22.00;67.70;;;;;;5034044;28;20568;-75
2022/05/10 09:08:21;;;;;;;10.90;5.30;;;22.00;68.20;;;;;;5033836;28;20029;-75
2022/05/10 09:11:02;;;;;;;6.35;4.97;;;22.00;68.30;;;;;;5034053;28;20033;-75
2022/05/10 09:13:29;;;;;;;12.40;4.53;;;22.00;68.20;;;;;;5034188;28;20370;-75
2022/05/10 09:15:58;;;;;;;9.55;5.15;;;22.00;67.90;;;;;;5033850;28;20025;-75
2022/05/10 09:18:27;;;;;;;13.45;5.28;;;22.10;68.60;;;;;;5033841;28;20022;-75
2022/05/10 09:21:13;;;;;;;6.65;4.07;;;22.10;68.40;;;;;;5034179;28;20022;-75
2022/05/10 09:23:56;;;;;;;7.45;4.50;;;22.20;68.40;;;;;;5034082;28;20386;-75
2022/05/10 09:26:24;;;;;;;6.60;4.43;;;22.30;68.60;;;;;;5033732;28;20497;-75
2022/05/10 09:29:10;;;;;;;8.90;4.10;;;22.40;68.60;;;;;;5033683;28;20495;-75
2022/05/10 09:37:31;;;;;;;6.97;3.53;;;22.50;66.60;;;;;;5033934;28;20072;-75
2022/05/10 09:39:57;;;;;;;5.20;3.40;;;22.70;65.50;;;;;;5034075;28;20079;-75
2022/05/10 09:42:33;;;;;;;7.40;3.60;;;22.90;65.50;;;;;;5033595;28;20022;-76
2022/05/10 09:45:04;;;;;;;5.40;2.80;;;23.10;65.20;;;;;;5033560;28;20069;-75
2022/05/10 09:47:30;;;;;;;8.57;3.40;;;23.30;64.10;;;;;;5032794;28;20041;-75
2022/05/10 09:50:14;;;;;;;7.13;3.22;;;23.60;63.60;;;;;;5033141;28;20036;-75
2022/05/10 09:52:40;;;;;;;8.18;3.90;;;23.80;62.60;;;;;;5033369;28;20465;-75
2022/05/10 09:55:23;;;;;;;8.90;3.80;;;24.00;62.00;;;;;;5032789;28;20493;-74
2022/05/10 09:57:49;;;;;;;8.13;3.53;;;24.10;60.40;;;;;;5033574;28;20026;-75
2022/05/10 10:00:15;;;;;;;7.97;2.80;;;24.10;59.80;;;;;;5033521;28;20095;-75
2022/05/10 10:02:43;;;;;;;7.30;3.03;;;24.10;61.40;;;;;;5033344;28;20041;-75
2022/05/10 10:05:19;;;;;;;8.82;3.30;;;24.30;60.20;;;;;;5033257;28;20048;-75
2022/05/10 10:07:56;;;;;;;6.90;3.50;;;24.40;60.00;;;;;;5033051;28;20392;-75
2022/05/10 10:10:36;;;;;;;7.95;3.00;;;24.50;59.70;;;;;;5033074;28;20459;-75
2022/05/10 10:13:29;;;;;;;9.80;4.07;;;24.50;59.70;;;;;;5033273;28;20083;-75
2022/05/10 10:15:55;;;;;;;8.38;3.08;;;24.40;58.30;;;;;;5027927;28;20111;-75
2022/05/10 10:18:42;;;;;;;9.85;3.72;;;24.50;59.00;;;;;;5032954;28;20029;-75
2022/05/10 10:21:11;;;;;;;9.23;3.25;;;24.60;58.90;;;;;;5033195;28;20083;-75
2022/05/10 10:23:50;;;;;;;6.97;3.38;;;24.60;58.00;;;;;;5033231;28;20082;-75
2022/05/10 10:26:37;;;;;;;5.63;3.70;;;24.60;58.10;;;;;;5032740;28;20401;-75
2022/05/10 10:29:23;;;;;;;4.60;2.78;;;24.50;57.80;;;;;;5032925;28;20057;-75
2022/05/10 10:31:49;;;;;;;7.65;3.17;;;24.50;58.40;;;;;;5032934;28;20072;-75
2022/05/10 10:34:36;;;;;;;7.03;3.30;;;24.60;57.40;;;;;;5033135;28;20061;-75
2022/05/10 10:37:16;;;;;;;7.25;3.20;;;24.50;57.60;;;;;;5032828;28;20480;-75
2022/05/10 10:40:17;;;;;;;11.02;3.33;;;24.60;57.50;;;;;;5032940;28;20022;-75
2022/05/10 10:42:53;;;;;;;9.30;4.00;;;24.50;57.40;;;;;;5032643;28;20489;-76
2022/05/10 10:45:28;;;;;;;8.90;3.17;;;24.60;57.60;;;;;;5032840;28;20163;-75
2022/05/10 10:48:20;;;;;;;11.10;4.00;;;24.60;57.10;;;;;;5032604;28;20045;-75
2022/05/10 10:50:46;;;;;;;13.05;2.90;;;24.60;56.80;;;;;;5032933;28;20029;-75
2022/05/10 10:53:12;;;;;;;7.03;3.13;;;24.60;56.60;;;;;;5032968;28;20044;-76
2022/05/10 10:55:44;;;;;;;10.65;4.10;;;24.60;57.20;;;;;;5032899;28;20029;-76
2022/05/10 10:58:36;;;;;;;9.00;3.60;;;24.60;56.90;;;;;;5032803;28;20108;-75
2022/05/10 11:01:29;;;;;;;10.68;4.03;;;24.50;57.10;;;;;;5032670;28;20049;-75
2022/05/10 11:04:07;;;;;;;7.68;3.28;;;24.40;57.20;;;;;;5032427;28;20105;-75
2022/05/10 11:06:40;;;;;;;8.32;3.70;;;24.40;58.40;;;;;;5032799;28;20026;-75
2022/05/10 11:09:23;;;;;;;6.68;3.40;;;24.60;58.60;;;;;;5032536;28;20473;-75
2022/05/10 11:12:03;;;;;;;7.22;3.40;;;24.60;58.40;;;;;;5032804;28;20060;-75
2022/05/10 11:15:01;;;;;;;6.45;3.65;;;24.70;58.30;;;;;;5032431;28;20037;-75
2022/05/10 11:17:56;;;;;;;6.20;3.65;;;24.70;57.70;;;;;;5031595;28;20021;-75
2022/05/10 11:20:42;;;;;;;6.68;3.30;;;24.70;58.00;;;;;;5032027;28;20030;-76
2022/05/10 11:23:07;;;;;;;10.35;3.70;;;24.80;58.20;;;;;;5031771;28;20029;-76
2022/05/10 11:26:05;;;;;;;6.20;3.72;;;24.80;57.00;;;;;;5032375;28;20029;-76
2022/05/10 11:28:51;;;;;;;10.88;3.78;;;24.80;56.80;;;;;;5032467;28;20025;-76
2022/05/10 11:31:58;;;;;;;9.27;3.53;;;24.60;56.90;;;;;;5034327;28;20022;-76
2022/05/10 11:35:11;;;;;;;6.80;3.08;;;24.60;56.30;;;;;;5012704;28;20073;-76
2022/05/10 11:38:03;;;;;;;6.85;3.13;;;24.50;57.90;;;;;;5022662;28;20171;-76
2022/05/10 11:40:35;;;;;;;6.53;3.47;;;24.50;57.30;;;;;;5017526;28;20033;-76
2022/05/10 11:43:27;;;;;;;;;;;24.50;57.40;;;;;;5036286;28;20101;-76
2022/05/10 11:46:24;;;;;;;5.88;2.97;;;24.40;57.80;;;;;;5035695;28;19913;-75
2022/05/10 11:49:11;;;;;;;7.80;3.50;;;24.40;57.90;;;;;;5036069;28;20036;-75
2022/05/10 11:52:15;;;;;;;10.43;3.50;;;24.30;57.00;;;;;;5035697;28;20108;-75
2022/05/10 11:55:04;;;;;;;6.45;3.28;;;24.30;58.00;;;;;;5035203;28;20088;-75
2022/05/10 11:57:33;;;;;;;10.48;3.90;;;24.30;57.90;;;;;;5035688;28;20025;-75
2022/05/10 12:00:26;;;;;;;9.35;3.83;;;24.30;58.00;;;;;;5035442;28;20025;-75
2022/05/10 12:02:56;;;;;;;5.22;2.80;;;24.30;58.40;;;;;;5035586;28;20380;-75
2022/05/10 12:05:35;;;;;;;7.00;3.13;;;24.30;57.90;;;;;;5035406;28;20076;-75
2022/05/10 12:08:22;;;;;;;9.57;2.92;;;24.30;58.60;;;;;;5035287;28;20108;-75
2022/05/10 12:10:48;;;;;;;9.93;3.47;;;24.40;58.90;;;;;;5024240;28;20477;-75
2022/05/10 12:22:17;;;;;;;7.75;3.30;;;24.60;57.00;;;;;;5034526;28;20032;-76
2022/05/10 12:24:45;;;;;;;5.10;3.38;;;24.60;57.50;;;;;;5034483;28;20022;-75
2022/05/10 12:27:11;;;;;;;9.07;3.40;;;24.50;56.80;;;;;;5034519;28;20389;-76
2022/05/10 12:29:40;;;;;;;5.43;3.38;;;24.40;56.60;;;;;;5034617;28;20029;-76
2022/05/10 12:32:15;;;;;;;7.20;3.10;;;24.50;56.60;;;;;;5034682;28;20096;-76
2022/05/10 12:34:55;;;;;;;6.93;3.45;;;24.50;57.60;;;;;;5034859;28;20124;-76
2022/05/10 12:37:35;;;;;;;7.88;3.70;;;24.50;56.50;;;;;;5034686;28;20025;-76
2022/05/10 12:40:10;;;;;;;6.63;3.10;;;24.40;56.90;;;;;;5034896;28;20108;-76
2022/05/10 12:43:15;;;;;;;7.72;3.10;;;24.30;57.30;;;;;;5034178;28;20060;-76
2022/05/10 12:46:01;;;;;;;7.75;2.85;;;24.30;57.50;;;;;;5019636;28;20033;-76
2022/05/10 12:48:45;;;;;;;9.52;3.65;;;24.30;58.60;;;;;;5034602;28;20037;-76
2022/05/10 12:51:22;;;;;;;8.95;3.60;;;24.40;58.40;;;;;;5034309;28;20396;-76
2022/05/10 12:54:07;;;;;;;9.32;3.25;;;24.40;58.00;;;;;;5034487;28;20385;-76
2022/05/10 12:56:41;;;;;;;5.25;3.53;;;24.40;58.40;;;;;;5034314;28;20038;-76
2022/05/10 12:59:28;;;;;;;9.77;3.13;;;24.50;58.30;;;;;;5034364;28;20029;-76
2022/05/10 13:01:57;;;;;;;11.00;3.22;;;24.50;57.60;;;;;;5034493;28;20073;-76
2022/05/10 13:04:27;;;;;;;10.23;3.00;;;24.50;57.80;;;;;;5034481;28;20036;-76
2022/05/10 13:07:09;;;;;;;10.52;2.90;;;24.50;58.20;;;;;;5034459;28;20021;-76
2022/05/10 13:09:55;;;;;;;7.10;2.58;;;24.50;57.90;;;;;;5034393;28;20029;-76
2022/05/10 13:12:23;;;;;;;8.27;2.95;;;24.40;58.20;;;;;;5034187;28;20026;-76
2022/05/10 13:14:53;;;;;;;9.30;3.00;;;24.40;58.00;;;;;;5034236;28;20385;-76
2022/05/10 13:17:44;;;;;;;8.88;3.03;;;24.40;57.70;;;;;;5034045;28;20488;-76
2022/05/10 13:20:12;;;;;;;4.20;2.80;;;24.40;57.70;;;;;;5034326;28;20025;-76
2022/05/10 13:22:46;;;;;;;11.55;2.97;;;24.40;57.90;;;;;;5033780;28;20026;-76
2022/05/10 13:25:12;;;;;;;4.85;2.95;;;24.40;58.50;;;;;;5034268;28;20113;-76
2022/05/10 13:27:40;;;;;;;11.57;3.40;;;24.40;58.50;;;;;;5034023;28;20045;-76
2022/05/10 13:30:09;;;;;;;9.02;3.78;;;24.30;58.40;;;;;;5033393;28;20021;-76